Time;durP1;ratioP1;P1;durP2;ratioP2;P2;SDS_P1;SDS_P2;PMS_P1;PMS_P2;Temp;Humidity;BMP_temperature;BMP_pressure;BME280_temperature;BME280_humidity;BME280_pressure;Samples;Min_cycle;Max_cycle;Signal;HPM_P1;HPM_P2
2023/10/19 00:01:55;;;;;;;9.50;8.60;;;9.30;99.90;;;;;;5107612;28;20607;-67
2023/10/19 00:04:22;;;;;;;9.77;8.77;;;9.30;99.90;;;;;;5106757;28;20782;-67
2023/10/19 00:06:48;;;;;;;10.47;8.97;;;9.20;99.90;;;;;;5107020;28;20205;-67
2023/10/19 00:09:16;;;;;;;11.87;9.60;;;9.20;99.90;;;;;;5106668;28;20547;-67
2023/10/19 00:11:46;;;;;;;10.70;9.07;;;9.30;99.90;;;;;;5105993;28;20198;-68
2023/10/19 00:14:16;;;;;;;11.10;8.77;;;9.30;99.90;;;;;;5087607;28;20207;-67
2023/10/19 00:16:44;;;;;;;10.50;8.77;;;9.30;99.90;;;;;;5086799;28;20556;-67
2023/10/19 00:19:12;;;;;;;10.03;8.80;;;9.20;99.90;;;;;;5105563;28;20716;-67
2023/10/19 00:21:50;;;;;;;10.77;8.80;;;9.20;99.90;;;;;;5106575;28;20202;-67
2023/10/19 00:24:19;;;;;;;9.57;8.67;;;9.10;99.90;;;;;;5099069;28;20226;-67
2023/10/19 00:26:48;;;;;;;10.60;8.97;;;9.10;99.90;;;;;;5086346;28;20679;-67
2023/10/19 00:29:30;;;;;;;11.47;8.77;;;9.20;99.90;;;;;;5086016;28;20246;-67
2023/10/19 00:31:58;;;;;;;10.70;8.90;;;9.10;99.90;;;;;;5092318;28;20726;-67
2023/10/19 00:34:25;;;;;;;9.63;8.53;;;9.20;99.90;;;;;;5105788;28;20206;-66
2023/10/19 00:36:55;;;;;;;12.63;9.90;;;9.20;99.90;;;;;;5106278;27;20291;-67
2023/10/19 00:39:23;;;;;;;9.70;8.70;;;9.20;99.90;;;;;;5105904;28;20210;-67
2023/10/19 00:41:58;;;;;;;10.47;9.30;;;9.20;99.90;;;;;;5101435;28;20201;-66
2023/10/19 00:44:35;;;;;;;9.47;8.47;;;9.10;99.90;;;;;;5086099;28;20233;-66
2023/10/19 00:47:03;;;;;;;11.70;8.97;;;9.10;99.90;;;;;;5085469;28;20730;-66
2023/10/19 00:49:31;;;;;;;10.73;9.00;;;9.10;99.90;;;;;;5085696;28;20207;-66
2023/10/19 00:52:03;;;;;;;12.30;9.87;;;9.10;99.90;;;;;;5085417;28;20222;-66
2023/10/19 00:54:35;;;;;;;10.77;9.67;;;9.10;99.90;;;;;;5085206;28;20562;-66
2023/10/19 00:57:08;;;;;;;12.93;8.97;;;9.10;99.90;;;;;;5106136;28;20275;-66
2023/10/19 00:59:38;;;;;;;11.83;9.20;;;9.10;99.90;;;;;;5105759;28;20214;-66
2023/10/19 01:02:17;;;;;;;10.03;8.93;;;9.00;99.90;;;;;;5105933;28;20665;-66
2023/10/19 01:04:46;;;;;;;10.83;8.70;;;9.10;99.90;;;;;;5105974;28;20309;-67
2023/10/19 01:07:15;;;;;;;9.37;8.40;;;9.00;99.90;;;;;;5099935;28;20301;-67
2023/10/19 01:09:44;;;;;;;10.33;9.13;;;9.00;99.90;;;;;;5085110;28;20203;-67
2023/10/19 01:12:25;;;;;;;9.63;8.63;;;9.00;99.90;;;;;;5091887;28;20610;-67
2023/10/19 01:15:12;;;;;;;13.17;9.23;;;9.00;99.90;;;;;;5099484;28;20245;-67
2023/10/19 01:17:40;;;;;;;10.50;9.33;;;9.00;99.90;;;;;;5105570;28;20198;-67
2023/10/19 01:20:17;;;;;;;11.03;9.13;;;9.00;99.90;;;;;;5102117;28;20844;-67
2023/10/19 01:22:54;;;;;;;12.00;8.77;;;9.00;99.90;;;;;;5099849;28;20209;-67
2023/10/19 01:25:34;;;;;;;11.70;9.10;;;9.00;99.90;;;;;;5104684;28;20685;-67
2023/10/19 01:28:07;;;;;;;11.70;8.57;;;9.00;99.90;;;;;;5104349;28;20204;-67
2023/10/19 01:30:34;;;;;;;9.67;8.70;;;9.00;99.90;;;;;;5098528;28;20740;-67
2023/10/19 01:33:01;;;;;;;10.53;8.87;;;9.00;99.90;;;;;;5098741;28;20581;-66
2023/10/19 01:36:24;;;;;;;10.20;8.77;;;9.00;99.90;;;;;;5104979;28;20246;-67
2023/10/19 01:38:16;;;;;;;10.83;9.23;;;9.00;99.90;;;;;;5104889;28;20209;-67
2023/10/19 01:40:46;;;;;;;11.57;8.50;;;8.90;99.90;;;;;;5105441;28;20220;-67
2023/10/19 01:43:20;;;;;;;10.17;8.77;;;8.90;99.90;;;;;;5099294;28;20238;-67
2023/10/19 01:45:47;;;;;;;10.33;8.83;;;8.90;99.90;;;;;;5085030;28;20190;-67
2023/10/19 01:48:13;;;;;;;12.23;9.40;;;9.00;99.90;;;;;;5085401;28;20665;-67
2023/10/19 01:50:41;;;;;;;12.63;9.10;;;8.90;99.90;;;;;;5099057;28;20648;-67
2023/10/19 01:53:15;;;;;;;12.07;8.90;;;9.00;99.90;;;;;;5085372;28;20218;-66
2023/10/19 01:55:43;;;;;;;9.67;8.73;;;8.90;99.90;;;;;;5085282;28;20199;-66
2023/10/19 01:58:09;;;;;;;10.23;8.17;;;9.00;99.90;;;;;;5084888;28;20331;-66
2023/10/19 02:00:37;;;;;;;11.70;9.10;;;9.00;99.90;;;;;;5084772;28;20210;-66
2023/10/19 02:03:07;;;;;;;10.50;9.30;;;9.00;99.90;;;;;;5101225;28;20205;-67
2023/10/19 02:05:39;;;;;;;9.77;8.77;;;9.00;99.90;;;;;;5108323;28;20308;-66
2023/10/19 02:08:07;;;;;;;12.43;9.83;;;9.00;99.90;;;;;;5109874;28;20194;-66
2023/10/19 02:10:34;;;;;;;12.40;9.70;;;9.00;99.90;;;;;;5109037;28;20206;-66
2023/10/19 02:13:06;;;;;;;14.33;9.20;;;9.10;99.90;;;;;;5094883;28;20206;-67
2023/10/19 02:15:35;;;;;;;11.37;9.57;;;9.00;99.90;;;;;;5088565;28;20191;-66
2023/10/19 02:18:02;;;;;;;11.30;9.30;;;9.00;99.90;;;;;;5106383;28;20237;-66
2023/10/19 02:20:30;;;;;;;11.83;10.10;;;9.00;99.90;;;;;;5108591;28;20209;-69
2023/10/19 02:22:58;;;;;;;11.60;9.37;;;9.00;99.90;;;;;;5108295;28;20206;-66
2023/10/19 02:25:31;;;;;;;11.40;9.17;;;9.00;99.90;;;;;;5107945;28;20296;-66
2023/10/19 02:27:58;;;;;;;12.40;9.67;;;9.00;99.90;;;;;;5088747;28;20279;-68
2023/10/19 02:30:26;;;;;;;12.90;9.67;;;9.00;99.90;;;;;;5087361;28;20583;-65
2023/10/19 02:32:53;;;;;;;12.83;9.80;;;9.00;99.90;;;;;;5087208;28;20199;-66
2023/10/19 02:35:20;;;;;;;10.33;9.30;;;9.00;99.90;;;;;;5086120;28;20210;-65
2023/10/19 02:37:46;;;;;;;13.23;9.63;;;9.00;99.90;;;;;;5092799;28;20257;-66
2023/10/19 02:40:19;;;;;;;11.23;10.10;;;8.90;99.90;;;;;;5105994;28;20682;-66
2023/10/19 02:42:47;;;;;;;11.40;9.67;;;8.90;99.90;;;;;;5104459;28;20198;-65
2023/10/19 02:45:16;;;;;;;10.53;9.20;;;8.90;99.90;;;;;;5092603;28;20241;-66
2023/10/19 02:47:45;;;;;;;11.40;9.40;;;8.90;99.90;;;;;;5106606;28;20305;-66
2023/10/19 02:50:13;;;;;;;12.80;9.77;;;8.90;99.90;;;;;;5106754;28;20294;-66
2023/10/19 02:52:40;;;;;;;12.00;9.77;;;8.90;99.90;;;;;;5106254;28;20206;-66
2023/10/19 02:55:09;;;;;;;11.80;9.53;;;9.00;99.90;;;;;;5106330;28;20301;-66
2023/10/19 02:57:36;;;;;;;13.10;9.73;;;8.90;99.90;;;;;;5107010;28;20210;-66
2023/10/19 03:00:10;;;;;;;10.80;9.70;;;8.90;99.90;;;;;;5097849;28;20210;-66
2023/10/19 03:02:36;;;;;;;12.30;9.73;;;9.00;99.90;;;;;;5097358;28;20936;-66
2023/10/19 03:05:13;;;;;;;11.27;10.03;;;9.00;99.90;;;;;;5106475;28;20245;-66
2023/10/19 03:07:39;;;;;;;13.10;10.00;;;9.00;99.90;;;;;;5105814;28;20236;-65
2023/10/19 03:10:07;;;;;;;13.47;10.57;;;9.00;99.90;;;;;;5104549;28;20214;-67
2023/10/19 03:12:33;;;;;;;12.70;10.20;;;8.90;99.90;;;;;;5091200;28;20213;-66
2023/10/19 03:15:02;;;;;;;13.63;9.53;;;8.90;99.90;;;;;;5107118;28;20202;-66
2023/10/19 03:17:30;;;;;;;12.17;10.47;;;8.90;99.90;;;;;;5106152;28;20755;-66
2023/10/19 03:19:57;;;;;;;10.43;9.17;;;8.90;99.90;;;;;;5106753;28;20295;-66
2023/10/19 03:22:25;;;;;;;16.97;9.83;;;8.90;99.90;;;;;;5098650;28;20226;-66
2023/10/19 03:25:11;;;;;;;12.43;9.67;;;8.90;99.90;;;;;;5087569;28;20258;-65
2023/10/19 03:27:37;;;;;;;13.57;10.27;;;9.00;99.90;;;;;;5094903;28;20290;-66
2023/10/19 03:30:05;;;;;;;11.20;9.83;;;9.00;99.90;;;;;;5086905;28;20211;-65
2023/10/19 03:32:35;;;;;;;14.27;10.50;;;9.00;99.90;;;;;;5086966;28;20213;-66
2023/10/19 03:35:04;;;;;;;12.07;9.80;;;9.00;99.90;;;;;;5102550;28;20210;-67
2023/10/19 03:37:35;;;;;;;16.70;11.30;;;9.00;99.90;;;;;;5107512;28;20213;-66
2023/10/19 03:40:06;;;;;;;12.13;10.30;;;9.00;99.90;;;;;;5107163;28;20652;-66
2023/10/19 03:42:39;;;;;;;10.57;9.50;;;9.00;99.90;;;;;;5091739;28;20343;-66
2023/10/19 03:45:12;;;;;;;12.20;10.20;;;8.90;99.90;;;;;;5087010;28;20230;-66
2023/10/19 03:47:43;;;;;;;12.47;10.07;;;9.00;99.90;;;;;;5087017;28;20203;-66
2023/10/19 03:50:14;;;;;;;14.73;11.30;;;9.00;99.90;;;;;;5087046;28;20779;-66
2023/10/19 03:52:43;;;;;;;12.43;10.50;;;9.00;99.90;;;;;;5104373;28;20198;-66
2023/10/19 03:55:14;;;;;;;11.90;10.30;;;9.00;99.90;;;;;;5107548;28;20229;-66
2023/10/19 03:57:46;;;;;;;13.13;10.30;;;9.00;99.90;;;;;;5087581;28;20231;-66
2023/10/19 04:00:16;;;;;;;11.33;10.13;;;9.00;99.90;;;;;;5086778;28;20235;-66
2023/10/19 04:02:43;;;;;;;13.90;10.63;;;8.90;99.90;;;;;;5087019;28;20210;-66
2023/10/19 04:05:14;;;;;;;14.57;9.93;;;9.00;99.90;;;;;;5086974;28;20237;-66
2023/10/19 04:07:43;;;;;;;12.93;10.33;;;8.90;99.90;;;;;;5086548;28;20199;-66
2023/10/19 04:10:29;;;;;;;12.30;10.97;;;8.90;99.90;;;;;;5101392;28;20293;-66
2023/10/19 04:12:59;;;;;;;13.40;10.57;;;9.00;99.90;;;;;;5103869;28;20206;-66
2023/10/19 04:15:28;;;;;;;11.37;10.07;;;9.00;99.90;;;;;;5086995;28;20195;-66
2023/10/19 04:17:58;;;;;;;12.43;10.40;;;9.00;99.90;;;;;;5086447;28;20207;-66
2023/10/19 04:20:30;;;;;;;10.97;9.83;;;9.00;99.90;;;;;;5086191;28;20214;-66
2023/10/19 04:22:58;;;;;;;14.03;10.77;;;9.00;99.90;;;;;;5086855;28;20228;-66
2023/10/19 04:25:27;;;;;;;12.23;10.90;;;8.90;99.90;;;;;;5086559;28;20595;-66
2023/10/19 04:27:54;;;;;;;12.50;10.87;;;9.00;99.90;;;;;;5085851;28;20225;-66
2023/10/19 04:30:22;;;;;;;16.50;11.03;;;9.00;99.90;;;;;;5094111;28;20301;-65
2023/10/19 04:32:51;;;;;;;12.20;10.90;;;9.00;99.90;;;;;;5106376;28;20669;-66
2023/10/19 04:35:22;;;;;;;14.47;10.83;;;9.00;99.90;;;;;;5106482;27;20600;-66
2023/10/19 04:37:50;;;;;;;16.20;11.63;;;8.90;99.90;;;;;;5106374;28;20210;-66
2023/10/19 04:40:17;;;;;;;12.70;10.70;;;8.80;99.90;;;;;;5106632;28;20545;-66
2023/10/19 04:42:46;;;;;;;14.73;11.13;;;8.90;99.90;;;;;;5105375;28;20206;-66
2023/10/19 04:45:13;;;;;;;11.77;10.57;;;8.90;99.90;;;;;;5086149;28;20559;-66
2023/10/19 04:47:40;;;;;;;14.80;11.43;;;8.90;99.90;;;;;;5085533;28;20924;-66
2023/10/19 04:50:10;;;;;;;11.87;10.67;;;8.90;99.90;;;;;;5085796;28;20235;-66
2023/10/19 04:52:38;;;;;;;12.57;10.70;;;8.90;99.90;;;;;;5086178;28;20211;-66
2023/10/19 04:55:06;;;;;;;13.70;11.17;;;8.90;99.90;;;;;;5085830;28;20214;-66
2023/10/19 04:57:32;;;;;;;13.17;10.60;;;8.80;99.90;;;;;;5104733;28;20206;-66
2023/10/19 05:00:01;;;;;;;13.27;11.27;;;8.80;99.90;;;;;;5106326;28;20300;-66
2023/10/19 05:02:28;;;;;;;13.93;11.23;;;8.90;99.90;;;;;;5105776;28;20619;-66
2023/10/19 05:04:54;;;;;;;13.77;11.33;;;8.90;99.90;;;;;;5105732;28;20230;-66
2023/10/19 05:07:21;;;;;;;15.17;11.90;;;8.80;99.90;;;;;;5106169;28;20289;-66
2023/10/19 05:09:49;;;;;;;15.00;11.93;;;8.90;99.90;;;;;;5099167;28;21080;-66
2023/10/19 05:12:16;;;;;;;14.43;12.13;;;8.80;99.90;;;;;;5084587;28;20260;-66
2023/10/19 05:14:44;;;;;;;12.73;11.50;;;8.90;99.90;;;;;;5085784;28;20218;-66
2023/10/19 05:17:12;;;;;;;14.80;11.93;;;8.80;99.90;;;;;;5085061;28;20230;-66
2023/10/19 05:19:39;;;;;;;14.30;12.03;;;8.70;99.90;;;;;;5085042;28;20748;-66
2023/10/19 05:22:08;;;;;;;15.37;12.07;;;8.80;99.90;;;;;;5085567;28;20283;-66
2023/10/19 05:24:35;;;;;;;15.17;12.37;;;8.70;99.90;;;;;;5085349;28;20230;-66
2023/10/19 05:27:02;;;;;;;15.50;12.40;;;8.80;99.90;;;;;;5096338;28;20210;-66
2023/10/19 05:29:29;;;;;;;15.73;12.60;;;8.80;99.90;;;;;;5105720;28;20249;-66
2023/10/19 05:31:57;;;;;;;14.80;11.90;;;8.80;99.90;;;;;;5105364;28;20658;-66
2023/10/19 05:34:26;;;;;;;15.73;12.20;;;8.70;99.90;;;;;;5095848;28;20214;-66
2023/10/19 05:36:54;;;;;;;17.90;12.93;;;8.70;99.90;;;;;;5084980;28;20260;-66
2023/10/19 05:39:27;;;;;;;16.47;13.20;;;8.80;99.90;;;;;;5084634;28;20214;-66
2023/10/19 05:41:54;;;;;;;16.13;12.73;;;8.70;99.90;;;;;;5085087;28;20451;-67
2023/10/19 05:44:24;;;;;;;14.10;11.80;;;8.70;99.90;;;;;;5090295;28;20335;-66
2023/10/19 05:46:52;;;;;;;17.53;13.00;;;8.70;99.90;;;;;;5085048;28;20202;-66
2023/10/19 05:49:19;;;;;;;15.17;12.27;;;8.70;99.90;;;;;;5084184;28;20944;-66
2023/10/19 05:51:48;;;;;;;17.67;12.90;;;8.70;99.90;;;;;;5084941;28;20210;-65
2023/10/19 05:54:15;;;;;;;16.27;12.13;;;8.70;99.90;;;;;;5085209;28;20214;-66
2023/10/19 05:56:41;;;;;;;16.33;13.20;;;8.70;99.90;;;;;;5096858;28;20266;-65
2023/10/19 05:59:10;;;;;;;15.13;12.67;;;8.70;99.90;;;;;;5105561;28;20202;-66
2023/10/19 06:01:37;;;;;;;16.83;12.67;;;8.70;99.90;;;;;;5105305;28;20286;-66
2023/10/19 06:04:05;;;;;;;15.67;13.63;;;8.70;99.90;;;;;;5105472;28;20217;-66
2023/10/19 06:06:32;;;;;;;18.50;13.50;;;8.70;99.90;;;;;;5105761;28;20202;-66
2023/10/19 06:09:02;;;;;;;17.17;13.37;;;8.70;99.90;;;;;;5105393;28;20337;-66
2023/10/19 06:11:32;;;;;;;19.60;13.93;;;8.60;99.90;;;;;;5105462;28;20607;-66
2023/10/19 06:14:00;;;;;;;15.23;12.87;;;8.60;99.90;;;;;;5093008;28;20837;-66
2023/10/19 06:16:27;;;;;;;17.77;14.13;;;8.50;99.90;;;;;;5084799;28;20211;-66
2023/10/19 06:18:55;;;;;;;15.50;13.53;;;8.60;99.90;;;;;;5084525;28;20632;-67
2023/10/19 06:21:22;;;;;;;17.93;14.13;;;8.60;99.90;;;;;;5084141;28;20297;-66
2023/10/19 06:23:50;;;;;;;15.83;13.67;;;8.50;99.90;;;;;;5084345;28;20744;-66
2023/10/19 06:26:18;;;;;;;17.70;15.13;;;8.50;99.90;;;;;;5092443;28;20287;-67
2023/10/19 06:28:45;;;;;;;17.53;13.93;;;8.40;99.90;;;;;;5105143;28;20218;-66
2023/10/19 06:31:13;;;;;;;16.40;13.90;;;8.30;99.90;;;;;;5104976;28;20242;-66
2023/10/19 06:33:41;;;;;;;18.40;14.63;;;8.30;99.90;;;;;;5104585;28;20303;-66
2023/10/19 06:36:08;;;;;;;16.93;15.13;;;8.10;99.90;;;;;;5105015;28;20246;-66
2023/10/19 06:38:35;;;;;;;19.03;14.37;;;8.10;99.90;;;;;;5105161;28;20210;-66
2023/10/19 06:41:11;;;;;;;17.30;14.33;;;8.10;99.90;;;;;;5104654;28;20202;-66
2023/10/19 06:43:39;;;;;;;26.10;21.13;;;8.10;99.90;;;;;;5104839;28;20210;-66
2023/10/19 06:46:06;;;;;;;18.60;15.23;;;8.10;99.90;;;;;;5104731;28;20238;-66
2023/10/19 06:48:33;;;;;;;19.63;15.20;;;8.20;99.90;;;;;;5104398;28;20313;-66
2023/10/19 06:51:02;;;;;;;18.70;15.07;;;8.20;99.90;;;;;;5104503;28;20301;-66
2023/10/19 06:53:28;;;;;;;17.70;15.53;;;8.20;99.90;;;;;;5092021;28;20222;-66
2023/10/19 06:55:55;;;;;;;18.00;14.90;;;8.10;99.90;;;;;;5087655;28;20615;-66
2023/10/19 06:58:26;;;;;;;20.23;15.40;;;8.00;99.90;;;;;;5098451;28;20212;-66
2023/10/19 07:00:59;;;;;;;19.67;15.50;;;8.00;99.90;;;;;;5108285;28;20217;-66
2023/10/19 07:03:28;;;;;;;18.90;15.23;;;8.00;99.90;;;;;;5108123;28;20866;-66
2023/10/19 07:05:56;;;;;;;22.60;15.47;;;8.00;99.90;;;;;;5108390;28;20240;-66
2023/10/19 07:08:23;;;;;;;19.43;15.43;;;8.10;99.90;;;;;;5108460;28;20202;-66
2023/10/19 07:10:50;;;;;;;19.77;15.80;;;8.10;99.90;;;;;;5108051;28;20676;-66
2023/10/19 07:13:17;;;;;;;19.03;14.87;;;8.20;99.90;;;;;;5102024;28;20206;-66
2023/10/19 07:15:46;;;;;;;18.60;15.30;;;8.20;99.90;;;;;;5087787;28;20264;-66
2023/10/19 07:18:14;;;;;;;22.47;15.17;;;8.20;99.90;;;;;;5086958;28;20748;-66
2023/10/19 07:20:42;;;;;;;17.90;13.63;;;8.20;99.90;;;;;;5087444;28;20213;-66
2023/10/19 07:23:18;;;;;;;20.20;15.53;;;8.20;99.90;;;;;;5087232;28;20654;-66
2023/10/19 07:25:45;;;;;;;19.83;15.37;;;8.30;99.90;;;;;;5087510;28;20626;-66
2023/10/19 07:28:13;;;;;;;19.57;15.50;;;8.30;99.90;;;;;;5107883;28;20208;-66
2023/10/19 07:30:41;;;;;;;19.27;15.43;;;8.30;99.90;;;;;;5107922;28;20217;-66
2023/10/19 07:33:09;;;;;;;19.73;15.93;;;8.30;99.90;;;;;;5107505;28;20223;-66
2023/10/19 07:35:39;;;;;;;18.90;14.93;;;8.30;99.90;;;;;;5107232;28;20927;-67
2023/10/19 07:38:07;;;;;;;16.73;14.27;;;8.20;99.90;;;;;;5107461;28;20206;-67
2023/10/19 07:40:34;;;;;;;21.00;16.60;;;8.30;99.90;;;;;;5107971;28;20213;-66
2023/10/19 07:43:03;;;;;;;17.03;14.00;;;8.30;99.90;;;;;;5107696;28;20301;-66
2023/10/19 07:45:31;;;;;;;18.53;14.80;;;8.30;99.90;;;;;;5107546;27;20252;-66
2023/10/19 07:48:05;;;;;;;19.83;14.33;;;8.30;99.90;;;;;;5107378;28;20210;-66
2023/10/19 07:50:32;;;;;;;19.63;15.10;;;8.40;99.90;;;;;;5108003;28;20551;-66
2023/10/19 07:53:01;;;;;;;18.50;14.60;;;8.40;99.90;;;;;;5107738;28;20206;-66
2023/10/19 07:55:28;;;;;;;16.47;14.27;;;8.40;99.90;;;;;;5107374;28;20202;-66
2023/10/19 07:57:56;;;;;;;15.90;13.27;;;8.50;99.90;;;;;;5107384;28;20206;-66
2023/10/19 08:00:24;;;;;;;16.47;13.07;;;8.50;99.90;;;;;;5107188;28;20206;-66
2023/10/19 08:02:51;;;;;;;17.37;13.83;;;8.60;99.90;;;;;;5106672;27;20654;-66
2023/10/19 08:05:19;;;;;;;15.50;13.87;;;8.60;99.90;;;;;;5106720;28;20594;-67
2023/10/19 08:07:47;;;;;;;14.63;12.97;;;8.70;99.90;;;;;;5107249;28;20293;-66
2023/10/19 08:10:17;;;;;;;18.47;14.17;;;8.70;99.90;;;;;;5106970;28;20229;-66
2023/10/19 08:12:47;;;;;;;16.20;13.27;;;8.70;99.90;;;;;;5105777;28;20206;-66
2023/10/19 08:15:15;;;;;;;18.03;13.03;;;8.70;99.90;;;;;;5093281;28;20221;-66
2023/10/19 08:17:44;;;;;;;15.77;13.67;;;8.70;99.90;;;;;;5106781;28;20237;-67
2023/10/19 08:20:17;;;;;;;17.37;14.10;;;8.70;99.90;;;;;;5106469;28;20668;-67
2023/10/19 08:22:47;;;;;;;15.77;12.67;;;8.70;99.90;;;;;;5100235;28;20203;-66
2023/10/19 08:25:15;;;;;;;18.77;13.93;;;8.70;99.90;;;;;;5086406;28;21053;-66
2023/10/19 08:27:44;;;;;;;15.60;13.57;;;8.80;99.90;;;;;;5086288;28;20623;-66
2023/10/19 08:30:12;;;;;;;15.57;12.97;;;8.80;99.90;;;;;;5086665;28;20207;-66
2023/10/19 08:32:39;;;;;;;15.47;13.87;;;8.80;99.90;;;;;;5091506;28;20202;-66
2023/10/19 08:35:07;;;;;;;16.87;13.40;;;8.90;99.90;;;;;;5106501;28;20213;-67
2023/10/19 08:37:34;;;;;;;14.97;12.80;;;8.90;99.90;;;;;;5106160;28;20987;-66
2023/10/19 08:40:01;;;;;;;15.43;13.33;;;8.90;99.90;;;;;;5106444;28;20309;-66
2023/10/19 08:42:30;;;;;;;15.73;14.03;;;8.90;99.90;;;;;;5106385;28;20242;-66
2023/10/19 08:44:59;;;;;;;17.63;13.20;;;8.90;99.90;;;;;;5098852;28;20205;-66
2023/10/19 08:47:26;;;;;;;18.70;14.63;;;8.90;99.90;;;;;;5085627;28;20302;-66
2023/10/19 08:49:54;;;;;;;16.03;13.10;;;8.90;99.90;;;;;;5085935;28;20314;-66
2023/10/19 08:52:23;;;;;;;18.07;13.27;;;8.90;99.90;;;;;;5086309;28;20306;-66
2023/10/19 08:54:50;;;;;;;15.77;13.07;;;8.90;99.90;;;;;;5085932;28;20217;-66
2023/10/19 08:57:18;;;;;;;15.37;12.90;;;8.90;99.90;;;;;;5085684;28;20313;-66
2023/10/19 08:59:48;;;;;;;15.43;13.07;;;9.00;99.90;;;;;;5085804;28;20640;-66
2023/10/19 09:02:16;;;;;;;14.40;12.90;;;9.00;99.90;;;;;;5085659;28;20211;-66
2023/10/19 09:04:44;;;;;;;15.17;13.10;;;9.00;99.90;;;;;;5085967;28;20244;-66
2023/10/19 09:07:11;;;;;;;14.93;12.50;;;9.00;99.90;;;;;;5085445;28;20237;-66
2023/10/19 09:09:40;;;;;;;16.10;12.70;;;9.00;99.90;;;;;;5085553;28;20838;-66
2023/10/19 09:12:08;;;;;;;15.83;13.10;;;9.00;99.90;;;;;;5085217;28;20211;-66
2023/10/19 09:14:39;;;;;;;15.83;12.90;;;9.10;99.90;;;;;;5101580;28;20241;-67
2023/10/19 09:17:08;;;;;;;16.70;13.13;;;9.10;99.90;;;;;;5105544;28;20201;-67
2023/10/19 09:19:40;;;;;;;16.80;13.03;;;9.00;99.90;;;;;;5094389;28;20214;-67
2023/10/19 09:22:16;;;;;;;20.47;13.87;;;9.00;99.90;;;;;;5085200;28;20295;-67
2023/10/19 09:24:44;;;;;;;15.47;12.90;;;9.10;99.90;;;;;;5085423;28;20201;-67
2023/10/19 09:27:12;;;;;;;14.00;12.53;;;9.10;99.90;;;;;;5084768;28;20242;-67
2023/10/19 09:29:40;;;;;;;16.77;13.37;;;9.10;99.90;;;;;;5097136;28;20214;-67
2023/10/19 09:32:09;;;;;;;17.93;13.20;;;9.10;99.90;;;;;;5105695;28;20241;-67
2023/10/19 09:34:37;;;;;;;14.97;13.13;;;9.10;99.90;;;;;;5105533;28;20673;-67
2023/10/19 09:37:04;;;;;;;16.17;12.93;;;9.10;99.90;;;;;;5105386;28;20229;-67
2023/10/19 09:39:35;;;;;;;15.87;12.90;;;9.10;99.90;;;;;;5105708;28;20305;-67
2023/10/19 09:42:05;;;;;;;16.03;13.10;;;9.00;99.90;;;;;;5105741;28;20652;-67
2023/10/19 09:44:39;;;;;;;17.97;13.43;;;9.00;99.90;;;;;;5105784;28;20914;-67
2023/10/19 09:47:13;;;;;;;14.13;12.73;;;9.10;99.90;;;;;;5105546;28;20218;-67
2023/10/19 09:49:42;;;;;;;15.43;12.87;;;9.10;99.90;;;;;;5105932;28;20563;-64
2023/10/19 09:52:10;;;;;;;15.80;13.07;;;9.10;99.90;;;;;;5105407;28;20837;-66
2023/10/19 09:54:52;;;;;;;17.17;13.07;;;9.10;99.90;;;;;;5105587;28;20296;-65
2023/10/19 09:57:26;;;;;;;14.97;12.37;;;9.10;99.90;;;;;;5105142;28;20705;-66
2023/10/19 10:00:08;;;;;;;18.17;14.30;;;9.10;99.90;;;;;;5105049;28;20959;-66
2023/10/19 10:02:36;;;;;;;18.23;13.10;;;9.20;99.90;;;;;;5104890;28;20202;-66
2023/10/19 10:05:04;;;;;;;15.43;13.77;;;9.20;99.90;;;;;;5104702;28;20206;-66
2023/10/19 10:07:31;;;;;;;15.57;13.17;;;9.10;99.90;;;;;;5100127;28;20237;-66
2023/10/19 10:09:58;;;;;;;16.43;13.50;;;9.20;99.90;;;;;;5084754;28;20206;-65
2023/10/19 10:12:27;;;;;;;16.60;13.30;;;9.10;99.90;;;;;;5084729;28;20248;-66
2023/10/19 10:14:58;;;;;;;17.47;13.90;;;9.10;99.90;;;;;;5100309;28;20236;-66
2023/10/19 10:17:26;;;;;;;17.87;13.90;;;9.10;99.90;;;;;;5083929;28;20664;-66
2023/10/19 10:19:59;;;;;;;18.00;14.30;;;9.10;99.90;;;;;;5084911;28;20211;-65
2023/10/19 10:22:27;;;;;;;15.00;13.30;;;9.00;99.90;;;;;;5085099;28;20218;-66
2023/10/19 10:24:57;;;;;;;17.33;14.67;;;9.10;99.90;;;;;;5088120;28;20573;-66
2023/10/19 10:27:24;;;;;;;16.97;14.13;;;9.00;99.90;;;;;;5107935;28;20225;-66
2023/10/19 10:29:59;;;;;;;18.13;15.03;;;9.00;99.90;;;;;;5109538;28;20206;-66
2023/10/19 10:32:45;;;;;;;16.43;13.67;;;9.00;99.90;;;;;;5108884;28;20572;-66
2023/10/19 10:35:53;;;;;;;17.97;14.27;;;9.00;99.90;;;;;;5108537;28;20214;-66
2023/10/19 10:38:19;;;;;;;18.43;14.20;;;9.00;99.90;;;;;;5094129;28;20721;-66
2023/10/19 10:40:48;;;;;;;23.23;15.13;;;9.00;99.90;;;;;;5088769;28;20207;-66
2023/10/19 10:43:16;;;;;;;17.83;14.70;;;8.90;99.90;;;;;;5091777;28;20211;-66
2023/10/19 10:45:43;;;;;;;18.83;15.50;;;8.90;99.90;;;;;;5088477;28;20245;-66
2023/10/19 10:48:14;;;;;;;19.13;15.23;;;8.80;99.90;;;;;;5087709;28;20231;-66
2023/10/19 10:50:42;;;;;;;16.93;14.53;;;8.80;99.90;;;;;;5088177;28;20232;-66
2023/10/19 10:53:11;;;;;;;17.33;14.97;;;8.80;99.90;;;;;;5088091;28;20210;-66
2023/10/19 10:55:39;;;;;;;18.80;15.63;;;8.80;99.90;;;;;;5087893;28;20653;-66
2023/10/19 10:58:06;;;;;;;19.37;15.30;;;8.90;99.90;;;;;;5087985;28;20272;-66
2023/10/19 11:00:34;;;;;;;19.67;16.10;;;8.90;99.90;;;;;;5088079;28;20317;-66
2023/10/19 11:03:04;;;;;;;17.93;15.67;;;8.90;99.90;;;;;;5087723;28;20844;-68
2023/10/19 11:05:34;;;;;;;18.73;14.97;;;8.90;99.90;;;;;;5107314;28;20205;-66
2023/10/19 11:08:13;;;;;;;18.67;15.67;;;8.90;99.90;;;;;;5107970;28;20286;-66
2023/10/19 11:10:42;;;;;;;18.93;15.63;;;8.90;99.90;;;;;;5107834;28;20990;-66
2023/10/19 11:13:10;;;;;;;18.37;15.37;;;8.90;99.90;;;;;;5107548;28;20218;-66
2023/10/19 11:15:38;;;;;;;21.70;15.10;;;8.90;99.90;;;;;;5108000;28;20238;-67
2023/10/19 11:18:07;;;;;;;19.20;15.23;;;8.90;99.90;;;;;;5107685;28;21038;-66
2023/10/19 11:20:35;;;;;;;19.20;15.17;;;8.90;99.90;;;;;;5108196;28;20202;-66
2023/10/19 11:23:02;;;;;;;17.13;14.77;;;8.90;99.90;;;;;;5088477;28;20316;-66
2023/10/19 11:25:32;;;;;;;20.90;15.70;;;8.90;99.90;;;;;;5087562;28;20301;-66
2023/10/19 11:28:04;;;;;;;19.47;15.13;;;9.00;99.90;;;;;;5087288;28;20223;-66
2023/10/19 11:30:33;;;;;;;19.50;15.40;;;9.00;99.90;;;;;;5087597;28;20225;-66
2023/10/19 11:33:01;;;;;;;19.47;15.87;;;9.00;99.90;;;;;;5086542;28;20207;-66
2023/10/19 11:35:29;;;;;;;21.80;16.67;;;9.00;99.90;;;;;;5087320;28;20713;-65
2023/10/19 11:37:58;;;;;;;19.17;15.83;;;9.00;99.90;;;;;;5086334;28;20735;-66
2023/10/19 11:40:26;;;;;;;22.37;15.37;;;9.00;99.90;;;;;;5104222;28;20210;-66
2023/10/19 11:42:56;;;;;;;17.90;15.03;;;9.00;99.90;;;;;;5107159;28;20210;-66
2023/10/19 11:45:23;;;;;;;19.40;15.60;;;9.00;99.90;;;;;;5107237;28;20206;-66
2023/10/19 11:47:51;;;;;;;21.47;16.17;;;8.90;99.90;;;;;;5107332;28;20237;-66
2023/10/19 11:50:19;;;;;;;17.43;15.47;;;8.90;99.90;;;;;;5107402;28;20202;-66
2023/10/19 11:52:47;;;;;;;20.43;15.70;;;8.90;99.90;;;;;;5107677;28;20202;-67
2023/10/19 11:55:14;;;;;;;17.53;15.53;;;8.80;99.90;;;;;;5106892;28;20206;-67
2023/10/19 11:57:43;;;;;;;17.40;15.07;;;8.80;99.90;;;;;;5107150;28;20209;-66
2023/10/19 12:00:19;;;;;;;19.60;15.93;;;8.70;99.90;;;;;;5101465;28;20293;-67
2023/10/19 12:02:46;;;;;;;19.60;16.13;;;8.70;99.90;;;;;;5086974;28;20282;-66
2023/10/19 12:05:13;;;;;;;19.40;15.93;;;8.70;99.90;;;;;;5086752;28;20310;-66
2023/10/19 12:07:41;;;;;;;19.03;16.83;;;8.70;99.90;;;;;;5086295;28;20310;-66
2023/10/19 12:10:12;;;;;;;22.83;17.50;;;8.70;99.90;;;;;;5086278;28;20518;-66
2023/10/19 12:12:39;;;;;;;20.10;17.27;;;8.70;99.90;;;;;;5086957;28;20210;-67
2023/10/19 12:15:07;;;;;;;21.33;17.90;;;8.70;99.90;;;;;;5107016;28;20202;-66
2023/10/19 12:17:36;;;;;;;24.23;18.17;;;8.70;99.90;;;;;;5106690;28;20210;-66
2023/10/19 12:20:06;;;;;;;24.47;17.93;;;8.80;99.90;;;;;;5107093;28;20446;-66
2023/10/19 12:22:38;;;;;;;20.13;17.00;;;8.80;99.90;;;;;;5107167;28;20217;-66
2023/10/19 12:25:06;;;;;;;22.73;18.10;;;8.90;99.90;;;;;;5106753;28;20195;-66
2023/10/19 12:27:33;;;;;;;23.10;17.17;;;8.90;99.90;;;;;;5106362;28;20324;-66
2023/10/19 12:30:01;;;;;;;23.27;17.07;;;8.80;99.90;;;;;;5098776;28;20215;-66
2023/10/19 12:32:28;;;;;;;20.30;16.47;;;8.80;99.90;;;;;;5085996;28;20233;-66
2023/10/19 12:34:57;;;;;;;22.60;19.20;;;8.80;99.90;;;;;;5088152;28;20210;-66
2023/10/19 12:37:24;;;;;;;23.40;17.73;;;8.80;99.90;;;;;;5105898;28;20320;-66
2023/10/19 12:39:52;;;;;;;22.53;17.20;;;8.80;99.90;;;;;;5106298;28;20209;-66
2023/10/19 12:42:22;;;;;;;19.87;17.77;;;8.70;99.90;;;;;;5106324;28;20660;-66
2023/10/19 12:44:49;;;;;;;22.27;17.53;;;8.80;99.90;;;;;;5086735;28;20691;-67
2023/10/19 12:47:17;;;;;;;21.10;18.23;;;8.80;99.90;;;;;;5085392;28;20321;-67
2023/10/19 12:49:46;;;;;;;21.23;16.77;;;8.80;99.90;;;;;;5084863;28;20590;-67
2023/10/19 12:52:14;;;;;;;23.67;18.30;;;8.80;99.90;;;;;;5085723;28;20634;-67